Time;durP1;ratioP1;P1;durP2;ratioP2;P2;SDS_P1;SDS_P2;PMS_P1;PMS_P2;Temp;Humidity;BMP_temperature;BMP_pressure;BME280_temperature;BME280_humidity;BME280_pressure;Samples;Min_cycle;Max_cycle;Signal;HPM_P1;HPM_P2
2024/01/14 00:01:26;;;;;;;12.68;6.03;;;2.70;99.90;;;;;;5041112;28;20763;-46
2024/01/14 00:03:54;;;;;;;9.18;6.25;;;2.70;99.90;;;;;;5048111;28;20212;-46
2024/01/14 00:06:23;;;;;;;8.80;5.57;;;2.70;99.90;;;;;;5049827;28;20236;-44
2024/01/14 00:08:51;;;;;;;8.60;6.68;;;2.70;99.90;;;;;;5040413;28;20244;-45
2024/01/14 00:11:20;;;;;;;9.43;6.50;;;2.70;99.90;;;;;;5040505;28;20217;-48
2024/01/14 00:13:48;;;;;;;9.50;6.38;;;2.70;99.90;;;;;;5048248;28;20284;-45
2024/01/14 00:16:16;;;;;;;9.50;5.93;;;2.70;99.90;;;;;;5041765;28;20201;-45
2024/01/14 00:18:45;;;;;;;8.48;5.65;;;2.70;99.90;;;;;;5049748;28;20197;-47
2024/01/14 00:21:14;;;;;;;10.50;5.93;;;2.70;99.90;;;;;;5040843;28;20220;-47
2024/01/14 00:23:42;;;;;;;12.57;7.30;;;2.70;99.90;;;;;;5040064;28;20643;-45
2024/01/14 00:26:10;;;;;;;10.88;6.28;;;2.70;99.90;;;;;;5048539;28;20299;-46
2024/01/14 00:28:38;;;;;;;10.20;6.30;;;2.70;99.90;;;;;;5051106;28;20201;-45
2024/01/14 00:31:06;;;;;;;10.40;6.65;;;2.70;99.90;;;;;;5041611;28;20220;-46
2024/01/14 00:33:35;;;;;;;10.48;6.55;;;2.70;99.90;;;;;;5048965;28;20204;-45
2024/01/14 00:36:06;;;;;;;7.68;5.47;;;2.70;99.90;;;;;;5044977;28;20247;-48
2024/01/14 00:38:35;;;;;;;8.10;5.80;;;2.70;99.90;;;;;;5049139;28;20200;-44
2024/01/14 00:41:03;;;;;;;7.53;5.22;;;2.70;99.90;;;;;;5038295;28;20306;-46
2024/01/14 00:43:31;;;;;;;12.88;7.07;;;2.70;99.90;;;;;;5048387;28;20236;-44
2024/01/14 00:45:59;;;;;;;8.77;6.70;;;2.70;99.90;;;;;;5046953;28;20225;-45
2024/01/14 00:48:27;;;;;;;10.98;6.80;;;2.70;99.90;;;;;;5048104;28;20189;-45
2024/01/14 00:50:56;;;;;;;10.55;6.55;;;2.70;99.90;;;;;;5038310;28;20244;-45
2024/01/14 00:53:25;;;;;;;9.18;6.38;;;2.70;99.90;;;;;;5048314;28;20188;-44
2024/01/14 00:55:53;;;;;;;7.72;5.95;;;2.70;99.90;;;;;;5046048;28;20631;-45
2024/01/14 00:58:21;;;;;;;9.52;5.78;;;2.70;99.90;;;;;;5046077;28;20193;-45
2024/01/14 01:00:50;;;;;;;7.85;5.43;;;2.70;99.90;;;;;;5045920;28;20235;-44
2024/01/14 01:03:18;;;;;;;8.95;6.05;;;2.70;99.90;;;;;;5047606;28;20224;-44
2024/01/14 01:05:46;;;;;;;6.35;5.18;;;2.70;99.90;;;;;;5046700;28;20350;-44
2024/01/14 01:08:14;;;;;;;8.85;6.18;;;2.70;99.90;;;;;;5043509;28;20197;-47
2024/01/14 01:10:44;;;;;;;8.05;5.68;;;2.70;99.90;;;;;;5046195;28;20725;-44
2024/01/14 01:13:12;;;;;;;7.13;4.35;;;2.70;99.90;;;;;;5043670;28;20272;-46
2024/01/14 01:15:40;;;;;;;8.05;5.10;;;2.70;99.90;;;;;;5041448;28;20223;-44
2024/01/14 01:18:09;;;;;;;8.45;5.75;;;2.70;99.90;;;;;;5044270;28;20200;-44
2024/01/14 01:20:37;;;;;;;5.60;4.32;;;2.70;99.90;;;;;;5036605;28;20221;-46
2024/01/14 01:23:05;;;;;;;7.00;5.03;;;2.70;99.90;;;;;;5046938;28;20205;-45
2024/01/14 01:25:34;;;;;;;7.38;4.80;;;2.70;99.90;;;;;;5042895;28;20208;-43
2024/01/14 01:28:04;;;;;;;8.40;5.82;;;2.70;99.90;;;;;;5045431;28;20196;-44
2024/01/14 01:30:32;;;;;;;7.78;5.40;;;2.70;99.90;;;;;;5047640;28;20233;-46
2024/01/14 01:33:00;;;;;;;6.82;4.68;;;2.70;99.90;;;;;;5048090;28;20177;-45
2024/01/14 01:35:29;;;;;;;8.15;5.78;;;2.70;99.90;;;;;;5037893;28;20225;-44
2024/01/14 01:37:57;;;;;;;7.00;5.05;;;2.70;99.90;;;;;;5043605;28;20215;-45
2024/01/14 01:40:25;;;;;;;7.47;4.82;;;2.70;99.90;;;;;;5042823;28;20571;-46
2024/01/14 01:42:53;;;;;;;6.80;4.88;;;2.70;99.90;;;;;;5046460;28;20280;-44
2024/01/14 01:45:22;;;;;;;6.65;4.55;;;2.70;99.90;;;;;;5041604;28;20601;-44
2024/01/14 01:47:53;;;;;;;6.25;4.57;;;2.70;99.90;;;;;;5048318;28;20420;-44
2024/01/14 01:50:21;;;;;;;6.88;5.25;;;2.70;99.90;;;;;;5048504;28;20781;-46
2024/01/14 01:52:50;;;;;;;7.43;4.07;;;2.70;99.90;;;;;;5046164;28;20204;-45
2024/01/14 01:55:19;;;;;;;7.68;5.03;;;2.70;99.90;;;;;;5027482;28;20216;-45
2024/01/14 01:57:47;;;;;;;6.57;4.45;;;2.70;99.90;;;;;;5048199;28;20192;-45
2024/01/14 02:00:16;;;;;;;7.35;5.10;;;2.70;99.90;;;;;;5041972;28;20266;-44
2024/01/14 02:02:48;;;;;;;6.22;4.65;;;2.70;99.90;;;;;;5049999;28;20201;-43
2024/01/14 02:05:21;;;;;;;8.38;4.78;;;2.70;99.90;;;;;;5027082;28;20219;-43
2024/01/14 02:07:49;;;;;;;7.35;4.82;;;2.70;99.90;;;;;;5043786;28;20197;-44
2024/01/14 02:10:18;;;;;;;7.00;5.07;;;2.70;99.90;;;;;;5043269;28;20220;-44
2024/01/14 02:12:46;;;;;;;6.07;4.30;;;2.70;99.90;;;;;;5042749;28;20203;-44
2024/01/14 02:15:15;;;;;;;6.80;4.60;;;2.70;99.90;;;;;;5046702;28;20249;-43
2024/01/14 02:17:43;;;;;;;7.18;4.25;;;2.70;99.90;;;;;;5042588;28;20295;-43
2024/01/14 02:20:14;;;;;;;5.93;4.15;;;2.70;99.90;;;;;;5042343;28;20228;-43
2024/01/14 02:22:45;;;;;;;6.57;4.13;;;2.70;99.90;;;;;;5025212;28;20193;-43
2024/01/14 02:25:15;;;;;;;6.07;4.07;;;2.70;99.90;;;;;;5045440;28;20270;-43
2024/01/14 02:27:44;;;;;;;6.30;4.85;;;2.70;99.90;;;;;;5047503;28;20196;-43
2024/01/14 02:30:15;;;;;;;5.00;3.90;;;2.70;99.90;;;;;;5042922;28;20307;-43
2024/01/14 02:32:43;;;;;;;5.63;4.28;;;2.70;99.90;;;;;;5041172;28;20197;-43
2024/01/14 02:35:11;;;;;;;8.25;5.28;;;2.70;99.90;;;;;;5046799;28;20221;-43
2024/01/14 02:37:43;;;;;;;5.22;4.03;;;2.70;99.90;;;;;;5047735;28;20734;-43
2024/01/14 02:40:12;;;;;;;6.28;3.83;;;2.70;99.90;;;;;;5041588;28;20648;-43
2024/01/14 02:42:42;;;;;;;10.32;4.70;;;2.70;99.90;;;;;;5039742;28;20224;-44
2024/01/14 02:45:10;;;;;;;6.78;4.47;;;2.70;99.90;;;;;;5038293;28;20224;-43
2024/01/14 02:47:38;;;;;;;6.55;3.65;;;2.70;99.90;;;;;;5044996;28;20201;-43
2024/01/14 02:50:07;;;;;;;7.80;4.82;;;2.70;99.90;;;;;;5032783;28;20782;-43
2024/01/14 02:52:38;;;;;;;5.40;4.10;;;2.70;99.90;;;;;;5045594;28;20200;-43
2024/01/14 02:55:06;;;;;;;6.38;4.45;;;2.70;99.90;;;;;;5039938;28;20220;-43
2024/01/14 02:57:34;;;;;;;5.05;4.03;;;2.70;99.90;;;;;;5044880;28;20675;-44
2024/01/14 03:00:06;;;;;;;6.30;4.75;;;2.70;99.90;;;;;;5042452;28;20215;-44
2024/01/14 03:02:34;;;;;;;6.40;3.92;;;2.70;99.90;;;;;;5047139;28;20208;-44
2024/01/14 03:05:02;;;;;;;6.53;4.10;;;2.70;99.90;;;;;;5038697;28;20327;-43
2024/01/14 03:07:31;;;;;;;5.68;4.13;;;2.70;99.90;;;;;;5045136;28;20746;-43
2024/01/14 03:10:01;;;;;;;7.03;5.00;;;2.70;99.90;;;;;;5044953;28;20274;-43
2024/01/14 03:12:29;;;;;;;6.63;4.28;;;2.70;99.90;;;;;;5042502;28;20217;-43
2024/01/14 03:14:57;;;;;;;6.60;4.05;;;2.70;99.90;;;;;;5038584;28;20224;-43
2024/01/14 03:17:26;;;;;;;5.97;4.15;;;2.70;99.90;;;;;;5041814;28;20201;-43
2024/01/14 03:19:55;;;;;;;5.25;4.10;;;2.70;99.90;;;;;;5039475;28;20304;-43
2024/01/14 03:22:23;;;;;;;7.28;4.55;;;2.70;99.90;;;;;;5041858;28;20461;-43
2024/01/14 03:24:51;;;;;;;6.00;3.78;;;2.70;99.90;;;;;;5042168;28;20228;-43
2024/01/14 03:27:19;;;;;;;6.40;4.50;;;2.70;99.90;;;;;;5043259;28;20633;-44
2024/01/14 03:29:47;;;;;;;7.80;5.05;;;2.70;99.90;;;;;;5045356;28;20224;-43
2024/01/14 03:32:16;;;;;;;5.47;3.67;;;2.70;99.90;;;;;;5049425;28;20216;-43
2024/01/14 03:34:45;;;;;;;8.18;5.47;;;2.70;99.90;;;;;;5048254;28;20221;-43
2024/01/14 03:37:13;;;;;;;6.28;4.50;;;2.70;99.90;;;;;;5047574;28;20666;-44
2024/01/14 03:39:43;;;;;;;6.70;4.50;;;2.70;99.90;;;;;;5040221;28;20312;-44
2024/01/14 03:42:11;;;;;;;5.50;3.40;;;2.70;99.90;;;;;;5049152;28;20626;-44
2024/01/14 03:44:39;;;;;;;4.82;3.55;;;2.70;99.90;;;;;;5044773;28;20298;-43
2024/01/14 03:47:07;;;;;;;5.13;3.60;;;2.70;99.90;;;;;;5045574;28;20219;-44
2024/01/14 03:49:35;;;;;;;5.47;3.75;;;2.70;99.90;;;;;;5048962;28;20244;-44
2024/01/14 03:52:05;;;;;;;5.07;3.75;;;2.70;99.90;;;;;;5044700;28;20220;-44
2024/01/14 03:54:33;;;;;;;5.30;3.60;;;2.70;99.90;;;;;;5041679;28;20257;-43
2024/01/14 03:57:02;;;;;;;4.95;3.90;;;2.70;99.90;;;;;;5047645;28;20202;-43
2024/01/14 03:59:30;;;;;;;4.68;3.80;;;2.70;99.90;;;;;;5046547;28;20195;-43
2024/01/14 04:01:59;;;;;;;4.65;3.85;;;2.70;99.90;;;;;;5048197;28;20226;-43
2024/01/14 04:04:27;;;;;;;3.55;3.08;;;2.70;99.90;;;;;;5050148;28;20215;-43
2024/01/14 04:06:55;;;;;;;4.43;3.28;;;2.70;99.90;;;;;;5047604;28;20663;-44
2024/01/14 04:09:25;;;;;;;6.18;4.22;;;2.70;99.90;;;;;;5038702;28;20198;-43
2024/01/14 04:11:53;;;;;;;5.35;3.83;;;2.70;99.90;;;;;;5046882;28;20462;-43
2024/01/14 04:14:21;;;;;;;5.68;3.42;;;2.70;99.90;;;;;;5033682;28;20685;-43
2024/01/14 04:16:49;;;;;;;4.55;3.47;;;2.70;99.90;;;;;;5045791;28;20260;-43
2024/01/14 04:19:18;;;;;;;6.00;4.18;;;2.70;99.90;;;;;;5051669;28;20234;-45
2024/01/14 04:21:46;;;;;;;5.72;3.40;;;2.70;99.90;;;;;;5045044;28;20221;-44
2024/01/14 04:24:14;;;;;;;5.47;3.20;;;2.70;99.90;;;;;;5041901;28;20200;-43
2024/01/14 04:26:44;;;;;;;5.63;3.60;;;2.70;99.90;;;;;;5024825;28;20204;-44
2024/01/14 04:29:13;;;;;;;5.78;3.40;;;2.70;99.90;;;;;;5050516;28;20254;-43
2024/01/14 04:31:41;;;;;;;5.10;3.83;;;2.70;99.90;;;;;;5042953;28;20279;-43
2024/01/14 04:34:09;;;;;;;5.72;3.63;;;2.70;99.90;;;;;;5037805;28;20199;-42
2024/01/14 04:36:37;;;;;;;5.25;3.90;;;2.70;99.90;;;;;;5041028;28;20312;-43
2024/01/14 04:39:05;;;;;;;6.15;4.00;;;2.70;99.90;;;;;;5044535;28;20453;-43
2024/01/14 04:41:34;;;;;;;5.80;3.90;;;2.70;99.90;;;;;;5046332;28;20228;-43
2024/01/14 04:44:04;;;;;;;8.48;4.32;;;2.70;99.90;;;;;;5042183;28;20188;-43
2024/01/14 04:46:32;;;;;;;4.57;3.30;;;2.70;99.90;;;;;;5039207;28;20221;-43
2024/01/14 04:49:00;;;;;;;4.80;3.17;;;2.70;99.90;;;;;;5043688;28;20280;-45
2024/01/14 04:51:28;;;;;;;5.50;3.35;;;2.70;99.90;;;;;;5050191;28;20235;-44
2024/01/14 04:53:57;;;;;;;5.38;3.42;;;2.70;99.90;;;;;;5045039;28;20207;-43
2024/01/14 04:56:25;;;;;;;6.05;4.00;;;2.70;99.90;;;;;;5045093;28;20213;-43
2024/01/14 04:58:53;;;;;;;5.47;3.47;;;2.70;99.90;;;;;;5048242;28;20289;-43
2024/01/14 05:01:22;;;;;;;4.78;2.60;;;2.70;99.90;;;;;;5043440;28;20224;-43
2024/01/14 05:03:51;;;;;;;4.15;3.25;;;2.70;99.90;;;;;;5048182;28;20193;-43
2024/01/14 05:06:19;;;;;;;5.95;4.28;;;2.70;99.90;;;;;;5050243;28;20213;-43
2024/01/14 05:08:47;;;;;;;4.50;3.53;;;2.70;99.90;;;;;;5047068;28;20273;-43
2024/01/14 05:11:15;;;;;;;6.20;3.13;;;2.70;99.90;;;;;;5041198;28;20319;-46
2024/01/14 05:13:43;;;;;;;6.00;3.10;;;2.70;99.90;;;;;;5031671;28;20192;-43
2024/01/14 05:16:12;;;;;;;4.35;2.70;;;2.70;99.90;;;;;;5046076;28;20214;-43
2024/01/14 05:18:41;;;;;;;5.00;2.92;;;2.70;99.90;;;;;;5049964;28;20627;-43
2024/01/14 05:21:15;;;;;;;4.10;2.97;;;2.70;99.90;;;;;;5029641;28;20225;-43
2024/01/14 05:23:43;;;;;;;4.13;2.78;;;2.70;99.90;;;;;;5042708;28;20190;-44
2024/01/14 05:26:12;;;;;;;4.97;3.47;;;2.70;99.90;;;;;;5045342;28;20216;-43
2024/01/14 05:28:40;;;;;;;4.28;2.80;;;2.70;99.90;;;;;;5049406;28;20201;-43
2024/01/14 05:31:08;;;;;;;4.63;2.80;;;2.70;99.90;;;;;;5039289;28;20714;-43
2024/01/14 05:33:36;;;;;;;3.50;2.90;;;2.70;99.90;;;;;;5049552;28;20200;-44
2024/01/14 05:36:06;;;;;;;5.65;3.03;;;2.70;99.90;;;;;;5044424;28;20219;-45
2024/01/14 05:38:35;;;;;;;4.38;2.90;;;2.70;99.90;;;;;;5047100;28;20200;-44
2024/01/14 05:41:03;;;;;;;3.80;2.90;;;2.70;99.90;;;;;;5039894;28;20282;-44
2024/01/14 05:43:31;;;;;;;3.75;2.80;;;2.70;99.90;;;;;;5043860;28;20196;-44
2024/01/14 05:45:59;;;;;;;3.72;2.38;;;2.70;99.90;;;;;;5040655;28;20236;-43
2024/01/14 05:48:27;;;;;;;5.00;3.00;;;2.70;99.90;;;;;;5046898;28;20566;-43
2024/01/14 05:50:56;;;;;;;4.28;2.65;;;2.70;99.90;;;;;;5039682;28;20240;-43
2024/01/14 05:53:25;;;;;;;4.05;3.03;;;2.70;99.90;;;;;;5047531;28;20722;-43
2024/01/14 05:55:53;;;;;;;3.78;2.90;;;2.70;99.90;;;;;;5048089;28;20718;-43
2024/01/14 05:58:21;;;;;;;4.75;3.20;;;2.70;99.90;;;;;;5049451;28;20196;-44
2024/01/14 06:00:49;;;;;;;3.67;3.10;;;2.70;99.90;;;;;;5047190;28;20231;-43
2024/01/14 06:03:18;;;;;;;3.78;2.65;;;2.70;99.90;;;;;;5040557;28;20350;-45
2024/01/14 06:05:46;;;;;;;4.38;2.85;;;2.70;99.90;;;;;;5040238;28;20220;-43
2024/01/14 06:08:14;;;;;;;3.17;2.30;;;2.70;99.90;;;;;;5047831;28;20204;-43
2024/01/14 06:10:44;;;;;;;5.47;3.30;;;2.70;99.90;;;;;;5040123;28;20233;-43
2024/01/14 06:13:12;;;;;;;4.47;2.83;;;2.70;99.90;;;;;;5047388;28;20193;-43
2024/01/14 06:15:40;;;;;;;3.33;2.60;;;2.70;99.90;;;;;;5044174;28;20220;-44
2024/01/14 06:18:09;;;;;;;4.30;2.70;;;2.70;99.90;;;;;;5042020;28;20547;-43
2024/01/14 06:20:37;;;;;;;3.92;2.60;;;2.70;99.90;;;;;;5040640;28;20287;-44
2024/01/14 06:23:05;;;;;;;4.03;2.70;;;2.70;99.90;;;;;;5042447;28;20206;-43
2024/01/14 06:25:33;;;;;;;4.10;2.88;;;2.70;99.90;;;;;;5046820;28;20216;-43
2024/01/14 06:28:03;;;;;;;4.70;2.88;;;2.70;99.90;;;;;;5047640;28;20197;-43
2024/01/14 06:30:32;;;;;;;4.25;3.15;;;2.70;99.90;;;;;;5036615;28;20221;-48
2024/01/14 06:33:00;;;;;;;4.10;2.80;;;2.70;99.90;;;;;;5047830;28;20284;-45
2024/01/14 06:35:28;;;;;;;4.40;3.13;;;2.70;99.90;;;;;;5044634;28;20224;-46
2024/01/14 06:37:56;;;;;;;4.43;2.90;;;2.70;99.90;;;;;;5048691;28;20200;-46
2024/01/14 06:40:25;;;;;;;3.72;2.42;;;2.70;99.90;;;;;;5041701;28;20244;-45
2024/01/14 06:43:04;;;;;;;4.30;2.45;;;2.70;99.90;;;;;;5047104;28;20436;-45
2024/01/14 06:45:32;;;;;;;5.85;2.47;;;2.80;99.90;;;;;;5040727;28;20231;-47
2024/01/14 06:48:01;;;;;;;4.68;3.05;;;2.70;99.90;;;;;;5046260;28;20208;-44
2024/01/14 06:50:29;;;;;;;3.78;2.78;;;2.70;99.90;;;;;;5041369;28;20240;-45
2024/01/14 06:52:57;;;;;;;3.90;2.90;;;2.70;99.90;;;;;;5040910;28;20205;-44
2024/01/14 06:55:25;;;;;;;5.03;2.88;;;2.70;99.90;;;;;;5030889;28;20220;-45
2024/01/14 06:57:54;;;;;;;5.25;3.08;;;2.70;99.90;;;;;;5047221;28;20193;-46
2024/01/14 07:00:24;;;;;;;4.30;2.55;;;2.70;99.90;;;;;;5042756;28;20291;-45
2024/01/14 07:02:52;;;;;;;4.47;2.70;;;2.70;99.90;;;;;;5049287;28;20204;-47
2024/01/14 07:05:20;;;;;;;3.15;2.40;;;2.70;99.90;;;;;;5042465;28;20239;-47
2024/01/14 07:07:48;;;;;;;4.10;2.72;;;2.70;99.90;;;;;;5049490;28;20227;-44
2024/01/14 07:10:22;;;;;;;3.80;2.50;;;2.70;99.90;;;;;;5049799;28;20583;-44
2024/01/14 07:12:50;;;;;;;3.95;2.80;;;2.70;99.90;;;;;;5045855;28;20205;-47
2024/01/14 07:15:18;;;;;;;3.10;2.35;;;2.70;99.90;;;;;;5052760;28;20232;-47
2024/01/14 07:17:48;;;;;;;3.78;2.45;;;2.70;99.90;;;;;;5049419;28;20277;-49
2024/01/14 07:20:26;;;;;;;4.97;3.35;;;2.70;99.90;;;;;;5043450;28;20212;-45
2024/01/14 07:22:55;;;;;;;3.65;2.67;;;2.80;99.90;;;;;;5050181;28;20202;-47
2024/01/14 07:25:43;;;;;;;3.72;2.17;;;2.70;99.90;;;;;;5050356;28;20216;-45
2024/01/14 07:28:11;;;;;;;3.83;2.70;;;2.70;99.90;;;;;;5030921;28;20546;-45
2024/01/14 07:30:40;;;;;;;4.25;2.38;;;2.70;99.90;;;;;;5039491;28;20220;-46
2024/01/14 07:33:09;;;;;;;4.07;2.95;;;2.70;99.90;;;;;;5035831;28;20630;-48
2024/01/14 07:35:40;;;;;;;4.55;2.35;;;2.70;99.90;;;;;;5047535;28;20271;-45
2024/01/14 07:38:08;;;;;;;4.20;2.78;;;2.70;99.90;;;;;;5050794;28;20388;-43
2024/01/14 07:40:42;;;;;;;3.83;2.85;;;2.80;99.90;;;;;;5050957;28;20228;-47
2024/01/14 07:43:10;;;;;;;4.30;2.58;;;2.70;99.90;;;;;;5047762;28;20200;-46
2024/01/14 07:45:38;;;;;;;3.03;2.35;;;2.70;99.90;;;;;;5048303;28;20231;-44
2024/01/14 07:48:06;;;;;;;3.53;2.50;;;2.70;99.90;;;;;;5051726;28;20216;-44
2024/01/14 07:50:36;;;;;;;2.58;2.03;;;2.70;99.90;;;;;;5046204;28;20225;-45
2024/01/14 07:53:04;;;;;;;4.03;2.47;;;2.70;99.90;;;;;;5050968;28;20197;-44
2024/01/14 07:55:32;;;;;;;3.00;2.00;;;2.70;99.90;;;;;;5042138;28;20225;-43
2024/01/14 07:58:00;;;;;;;2.75;2.40;;;2.80;99.90;;;;;;5050629;28;20213;-43
2024/01/14 08:00:29;;;;;;;3.83;2.50;;;2.80;99.90;;;;;;5045304;28;20229;-43
2024/01/14 08:02:57;;;;;;;3.80;2.58;;;2.70;99.90;;;;;;5050154;28;20205;-43
2024/01/14 08:05:24;;;;;;;3.60;2.83;;;2.80;99.90;;;;;;5051060;28;20208;-43
2024/01/14 08:07:53;;;;;;;2.75;1.80;;;2.80;99.90;;;;;;5047182;28;20220;-43
2024/01/14 08:10:22;;;;;;;3.97;2.50;;;2.80;99.90;;;;;;5041838;28;20291;-44
2024/01/14 08:12:50;;;;;;;2.88;2.30;;;2.80;99.90;;;;;;5049189;28;20563;-43
2024/01/14 08:15:18;;;;;;;3.25;2.42;;;2.70;99.90;;;;;;5048682;28;20216;-43
2024/01/14 08:17:46;;;;;;;3.60;2.63;;;2.80;99.90;;;;;;5048194;28;20246;-43
2024/01/14 08:20:15;;;;;;;3.00;2.20;;;2.80;99.90;;;;;;5041605;28;20220;-47
2024/01/14 08:22:43;;;;;;;3.15;2.10;;;2.80;99.90;;;;;;5051423;28;20225;-44
2024/01/14 08:25:13;;;;;;;8.70;3.95;;;2.80;99.90;;;;;;5049596;28;20213;-47
2024/01/14 08:27:44;;;;;;;5.93;3.88;;;2.80;99.90;;;;;;5050877;28;20940;-44
2024/01/14 08:30:14;;;;;;;5.57;3.92;;;2.70;99.90;;;;;;5048343;28;20435;-43
2024/01/14 08:32:45;;;;;;;6.32;3.50;;;2.70;99.90;;;;;;5050014;28;20200;-43
2024/01/14 08:35:14;;;;;;;5.88;4.05;;;2.70;99.90;;;;;;5040581;28;20645;-43
2024/01/14 08:37:42;;;;;;;6.35;4.00;;;2.70;99.90;;;;;;5039709;28;20285;-43
2024/01/14 08:40:15;;;;;;;4.75;3.35;;;2.70;99.90;;;;;;5047057;28;20214;-43
2024/01/14 08:42:44;;;;;;;7.07;3.97;;;2.70;99.90;;;;;;5047913;28;20197;-43
2024/01/14 08:45:12;;;;;;;6.28;3.72;;;2.70;99.90;;;;;;5048100;28;20224;-44
2024/01/14 08:47:43;;;;;;;4.78;2.42;;;2.70;99.90;;;;;;5050030;28;20204;-43
2024/01/14 08:50:12;;;;;;;4.82;3.50;;;2.70;99.90;;;;;;5041777;28;20230;-43
2024/01/14 08:52:40;;;;;;;6.53;3.15;;;2.70;99.90;;;;;;5049978;28;20279;-44
2024/01/14 08:55:09;;;;;;;5.32;3.08;;;2.70;99.90;;;;;;5045449;28;20632;-44
2024/01/14 08:57:39;;;;;;;4.00;2.60;;;2.80;99.90;;;;;;5050249;28;20229;-43
2024/01/14 09:00:09;;;;;;;7.18;3.88;;;2.70;99.90;;;;;;5042998;28;20217;-45
2024/01/14 09:02:38;;;;;;;4.82;2.80;;;2.70;99.90;;;;;;5046554;28;20212;-47
2024/01/14 09:05:06;;;;;;;4.70;2.97;;;2.80;99.90;;;;;;5049209;28;20227;-45
2024/01/14 09:07:34;;;;;;;4.40;2.88;;;2.70;99.90;;;;;;5050799;28;20603;-47
2024/01/14 09:10:03;;;;;;;6.28;2.75;;;2.70;99.90;;;;;;5048260;28;20232;-44
2024/01/14 09:12:31;;;;;;;4.53;3.00;;;2.80;99.90;;;;;;5044209;28;20250;-44
2024/01/14 09:14:59;;;;;;;4.93;3.60;;;2.80;99.90;;;;;;5047321;28;20232;-45
2024/01/14 09:17:31;;;;;;;4.32;2.75;;;2.70;99.90;;;;;;5046870;28;20186;-44
2024/01/14 09:20:00;;;;;;;3.60;2.50;;;2.80;99.90;;;;;;5048858;28;20316;-51
2024/01/14 09:22:29;;;;;;;3.45;2.20;;;2.80;99.90;;;;;;5046031;28;20255;-46
2024/01/14 09:24:57;;;;;;;5.82;3.83;;;2.80;99.90;;;;;;5048887;28;20299;-43
2024/01/14 09:27:29;;;;;;;2.97;2.17;;;2.80;99.90;;;;;;5045322;28;20602;-45
2024/01/14 09:29:58;;;;;;;3.65;2.63;;;2.80;99.90;;;;;;5046814;28;20772;-44
2024/01/14 09:32:27;;;;;;;3.22;2.60;;;2.80;99.90;;;;;;5046338;28;20300;-46
2024/01/14 09:34:56;;;;;;;5.00;2.90;;;2.80;99.90;;;;;;5048477;28;20216;-45
2024/01/14 09:37:24;;;;;;;3.63;2.53;;;2.80;99.90;;;;;;5047509;28;20185;-44
2024/01/14 09:39:52;;;;;;;4.05;2.25;;;2.80;99.90;;;;;;5048091;28;20216;-44
2024/01/14 09:42:28;;;;;;;4.70;2.88;;;2.80;99.90;;;;;;5044210;28;20582;-47
2024/01/14 09:45:01;;;;;;;4.00;2.38;;;2.80;99.90;;;;;;5045548;28;20304;-44
2024/01/14 09:47:35;;;;;;;5.05;3.45;;;2.80;99.90;;;;;;5048736;28;20216;-45
2024/01/14 09:50:07;;;;;;;3.30;2.45;;;2.80;99.90;;;;;;5044246;28;20231;-47
2024/01/14 09:52:36;;;;;;;4.90;2.60;;;2.80;99.90;;;;;;5044693;28;20192;-46
2024/01/14 09:55:06;;;;;;;3.40;2.45;;;2.80;99.90;;;;;;5028329;28;20212;-43
2024/01/14 09:57:35;;;;;;;4.03;2.47;;;2.80;99.90;;;;;;5049773;28;20208;-45
2024/01/14 10:00:07;;;;;;;4.88;2.95;;;2.80;99.90;;;;;;5037954;28;20242;-44
2024/01/14 10:02:36;;;;;;;4.78;2.80;;;2.80;99.90;;;;;;5045273;28;20197;-44
2024/01/14 10:05:06;;;;;;;3.28;2.25;;;2.80;99.90;;;;;;5048557;28;20311;-43
2024/01/14 10:07:35;;;;;;;3.13;1.95;;;2.80;99.90;;;;;;5050022;28;20201;-43
2024/01/14 10:10:07;;;;;;;4.60;2.58;;;2.80;99.90;;;;;;5042379;28;20216;-44
2024/01/14 10:12:37;;;;;;;4.32;2.85;;;2.80;99.90;;;;;;5049767;28;20258;-44
2024/01/14 10:15:06;;;;;;;4.30;2.75;;;2.80;99.90;;;;;;5043941;28;20689;-46
2024/01/14 10:17:35;;;;;;;4.60;2.78;;;2.80;99.90;;;;;;5037539;28;20189;-47
2024/01/14 10:20:04;;;;;;;3.40;2.10;;;2.80;99.90;;;;;;5030332;28;20222;-45
2024/01/14 10:22:33;;;;;;;3.17;2.28;;;2.80;99.90;;;;;;5046615;28;20282;-45
2024/01/14 10:25:02;;;;;;;4.47;2.22;;;2.80;99.90;;;;;;5047328;28;20807;-47
2024/01/14 10:27:36;;;;;;;4.30;2.28;;;2.80;99.90;;;;;;5049793;28;20201;-47
2024/01/14 10:30:14;;;;;;;5.75;3.13;;;2.80;99.90;;;;;;5047179;28;20216;-46
2024/01/14 10:32:47;;;;;;;5.05;2.63;;;2.80;99.90;;;;;;5045945;28;20185;-45
2024/01/14 10:35:35;;;;;;;3.90;2.30;;;2.80;99.90;;;;;;5041139;28;20216;-44
2024/01/14 10:38:04;;;;;;;4.00;2.20;;;2.80;99.90;;;;;;5048185;28;20185;-46
2024/01/14 10:40:33;;;;;;;3.10;2.22;;;2.80;99.90;;;;;;5037286;28;20227;-45
2024/01/14 10:43:05;;;;;;;3.60;2.22;;;2.80;99.90;;;;;;5040643;28;20785;-44
2024/01/14 10:45:33;;;;;;;4.07;2.40;;;2.80;99.90;;;;;;5040766;28;20310;-46
2024/01/14 10:48:09;;;;;;;3.72;2.33;;;2.80;99.90;;;;;;5048179;28;20230;-46
2024/01/14 10:50:39;;;;;;;2.55;1.85;;;2.80;99.90;;;;;;5042966;28;20690;-44
2024/01/14 10:53:18;;;;;;;4.05;2.40;;;2.80;99.90;;;;;;5043368;28;20200;-44
2024/01/14 10:55:48;;;;;;;4.50;2.45;;;2.80;99.90;;;;;;5047948;28;20243;-45
2024/01/14 10:58:24;;;;;;;4.28;3.00;;;2.80;99.90;;;;;;5043416;28;20250;-45
2024/01/14 11:00:54;;;;;;;2.95;1.95;;;2.80;99.90;;;;;;5044376;28;20232;-46
2024/01/14 11:03:24;;;;;;;6.53;2.75;;;2.80;99.90;;;;;;5049031;28;20239;-44
2024/01/14 11:05:54;;;;;;;2.90;2.00;;;2.80;99.90;;;;;;5047263;28;20224;-47
2024/01/14 11:08:23;;;;;;;3.50;2.15;;;2.80;99.90;;;;;;5049525;28;20223;-46
2024/01/14 11:10:52;;;;;;;3.65;2.28;;;2.80;99.90;;;;;;5044481;28;20303;-46
2024/01/14 11:13:25;;;;;;;3.33;2.17;;;2.80;99.90;;;;;;5047795;28;20220;-45
2024/01/14 11:16:00;;;;;;;4.80;3.05;;;2.80;99.90;;;;;;5046914;28;20212;-43
2024/01/14 11:18:35;;;;;;;4.88;2.55;;;2.80;99.90;;;;;;5041260;28;20184;-43
2024/01/14 11:21:26;;;;;;;3.17;2.05;;;2.80;99.90;;;;;;5042820;28;20215;-46
2024/01/14 11:24:14;;;;;;;3.65;2.78;;;2.80;99.90;;;;;;5034793;28;20188;-46
2024/01/14 11:26:42;;;;;;;3.97;2.60;;;2.80;99.90;;;;;;5047524;28;20220;-45
2024/01/14 11:29:10;;;;;;;5.03;2.78;;;2.80;99.90;;;;;;5047367;28;20208;-43
2024/01/14 11:32:12;;;;;;;3.60;2.70;;;2.80;99.90;;;;;;5044782;28;20248;-46
2024/01/14 11:34:59;;;;;;;4.32;2.25;;;2.80;99.90;;;;;;4983371;28;20202;-43
2024/01/14 11:37:44;;;;;;;3.08;1.90;;;2.80;99.90;;;;;;4981456;28;20211;-46
2024/01/14 11:40:24;;;;;;;3.17;1.90;;;2.80;99.90;;;;;;5029967;28;20668;-43
2024/01/14 11:42:57;;;;;;;4.03;2.20;;;2.80;99.90;;;;;;5043412;28;20296;-44
2024/01/14 11:45:34;;;;;;;4.75;2.10;;;2.80;99.90;;;;;;5028338;28;20221;-44
2024/01/14 11:48:05;;;;;;;2.60;1.70;;;2.80;99.90;;;;;;5048273;28;20224;-46
2024/01/14 11:50:37;;;;;;;2.85;1.88;;;2.80;99.90;;;;;;5048964;28;20252;-45
2024/01/14 11:53:07;;;;;;;2.70;1.85;;;2.80;99.90;;;;;;5051106;28;20244;-46
2024/01/14 11:55:36;;;;;;;4.55;1.98;;;2.80;99.90;;;;;;5043269;28;20220;-45
2024/01/14 11:58:29;;;;;;;3.22;2.00;;;2.80;99.90;;;;;;5040120;28;20189;-45
2024/01/14 12:00:58;;;;;;;4.80;2.20;;;2.80;99.90;;;;;;5039837;28;20596;-47
2024/01/14 12:03:26;;;;;;;3.08;1.92;;;2.80;99.90;;;;;;5031948;28;20197;-45
2024/01/14 12:06:03;;;;;;;2.63;1.92;;;2.80;99.90;;;;;;5031849;28;20225;-46
2024/01/14 12:08:31;;;;;;;3.45;1.70;;;2.90;99.90;;;;;;5041085;28;20367;-45
2024/01/14 12:11:03;;;;;;;4.28;2.25;;;2.80;99.90;;;;;;5045089;28;20228;-45
2024/01/14 12:13:32;;;;;;;2.97;1.65;;;2.80;99.90;;;;;;5031421;28;20507;-45
2024/01/14 12:16:01;;;;;;;2.95;2.20;;;2.80;99.90;;;;;;5047246;28;20220;-44
2024/01/14 12:18:40;;;;;;;3.95;2.30;;;2.80;99.90;;;;;;5036396;28;20198;-46
2024/01/14 12:21:16;;;;;;;3.10;1.88;;;2.80;99.90;;;;;;5038751;28;20748;-46
2024/01/14 12:23:58;;;;;;;3.28;2.10;;;2.90;99.90;;;;;;5033448;28;20197;-44
2024/01/14 12:26:26;;;;;;;2.63;1.63;;;2.80;99.90;;;;;;5043250;28;20637;-43
2024/01/14 12:28:55;;;;;;;3.05;1.83;;;2.80;99.90;;;;;;5041926;28;20266;-47
2024/01/14 12:31:25;;;;;;;2.85;2.22;;;2.90;99.90;;;;;;5042605;28;20283;-44
2024/01/14 12:34:03;;;;;;;2.20;1.33;;;2.80;99.90;;;;;;5022312;28;20223;-44
2024/01/14 12:36:34;;;;;;;2.95;2.00;;;2.80;99.90;;;;;;5039749;28;20224;-46
2024/01/14 12:39:17;;;;;;;3.03;1.70;;;2.80;99.90;;;;;;5040193;28;20578;-44
2024/01/14 12:41:45;;;;;;;2.97;2.00;;;2.80;99.90;;;;;;5034159;28;20641;-46
2024/01/14 12:44:24;;;;;;;2.65;1.52;;;2.90;99.90;;;;;;5040814;28;20197;-45
2024/01/14 12:47:03;;;;;;;3.67;2.10;;;2.90;99.90;;;;;;5041410;28;20295;-43
2024/01/14 12:49:31;;;;;;;2.70;1.60;;;2.90;99.90;;;;;;5037647;28;20232;-43
2024/01/14 12:52:02;;;;;;;2.70;1.85;;;2.90;99.90;;;;;;5036767;28;20593;-45
2024/01/14 12:54:30;;;;;;;2.70;1.55;;;2.90;99.90;;;;;;5042548;28;20201;-44
2024/01/14 12:57:00;;;;;;;2.67;1.98;;;2.90;99.90;;;;;;5034930;28;20194;-45
2024/01/14 12:59:32;;;;;;;2.28;1.50;;;2.90;99.90;;;;;;5041902;28;20577;-44
2024/01/14 13:02:01;;;;;;;2.22;1.55;;;2.90;99.90;;;;;;5040284;28;20213;-44
2024/01/14 13:04:30;;;;;;;3.20;2.13;;;2.90;99.90;;;;;;5048081;28;20196;-44
2024/01/14 13:06:58;;;;;;;2.63;1.70;;;2.90;99.90;;;;;;5041892;28;20686;-43
2024/01/14 13:09:28;;;;;;;3.35;1.85;;;2.80;99.90;;;;;;5047861;28;20208;-42
2024/01/14 13:11:57;;;;;;;2.97;1.70;;;2.90;99.90;;;;;;5041962;28;20311;-42